createdAt,value
2022-08-08T00:00:51.787Z,17.7
2022-08-08T00:05:10.193Z,17.6
2022-08-08T00:10:10.559Z,17.5
2022-08-08T00:15:10.100Z,17.4
2022-08-08T00:20:14.527Z,17.3
2022-08-08T00:25:10.103Z,17.2
2022-08-08T00:30:11.173Z,17.1
2022-08-08T00:35:10.100Z,17
2022-08-08T00:41:06.205Z,16.9
2022-08-08T00:45:21.184Z,16.8
2022-08-08T00:50:10.107Z,16.7
2022-08-08T00:55:10.116Z,16.7
2022-08-08T01:00:10.589Z,16.7
2022-08-08T01:05:10.145Z,16.8
2022-08-08T01:10:10.111Z,16.9
2022-08-08T01:15:10.117Z,16.8
2022-08-08T01:20:13.384Z,16.8
2022-08-08T01:25:14.497Z,16.6
2022-08-08T01:30:10.117Z,16.5
2022-08-08T01:35:11.022Z,16.5
2022-08-08T01:40:14.558Z,16.5
2022-08-08T01:45:10.123Z,16.5
2022-08-08T01:50:10.126Z,16.5
2022-08-08T01:55:18.544Z,16.4
2022-08-08T02:00:12.887Z,16.4
2022-08-08T02:05:10.121Z,16.3
2022-08-08T02:10:11.964Z,16.3
2022-08-08T02:15:11.329Z,16.3
2022-08-08T02:20:16.032Z,16.2
2022-08-08T02:25:11.630Z,16.2
2022-08-08T02:30:13.161Z,16.2
2022-08-08T02:35:11.518Z,16.2
2022-08-08T02:40:10.130Z,16.1
2022-08-08T02:45:18.399Z,16.1
2022-08-08T02:50:12.594Z,16.1
2022-08-08T02:55:10.327Z,16.1
2022-08-08T03:00:16.035Z,16.1
2022-08-08T03:05:10.872Z,16.1
2022-08-08T03:10:17.774Z,16.1
2022-08-08T03:15:55.538Z,16
2022-08-08T03:20:10.213Z,15.9
2022-08-08T03:25:14.951Z,15.9
2022-08-08T03:30:10.104Z,15.8
2022-08-08T03:35:10.098Z,15.7
2022-08-08T03:40:10.705Z,15.8
2022-08-08T03:46:03.699Z,15.8
2022-08-08T03:50:10.201Z,15.7
2022-08-08T03:55:20.546Z,15.6
2022-08-08T04:00:11.637Z,15.5
2022-08-08T04:05:10.446Z,15.5
2022-08-08T04:10:10.293Z,15.6
2022-08-08T04:15:11.045Z,15.5
2022-08-08T04:20:10.107Z,15.5
2022-08-08T04:25:13.208Z,15.5
2022-08-08T04:30:17.677Z,15.5
2022-08-08T04:35:13.141Z,15.6
2022-08-08T04:40:10.907Z,15.7
2022-08-08T04:45:10.095Z,15.8
2022-08-08T04:50:10.110Z,15.8
2022-08-08T04:55:10.098Z,15.9
2022-08-08T05:00:10.300Z,16.1
2022-08-08T05:05:15.998Z,16.3
2022-08-08T05:10:12.485Z,16.4
2022-08-08T05:15:13.598Z,16.5
2022-08-08T05:20:14.930Z,16.5
2022-08-08T05:25:10.103Z,16.6
2022-08-08T05:30:10.102Z,17
2022-08-08T05:35:10.102Z,17.3
2022-08-08T05:40:10.103Z,17.3
2022-08-08T05:45:25.851Z,17.4
2022-08-08T05:50:10.111Z,17.8
2022-08-08T05:55:10.258Z,17.9
2022-08-08T06:00:22.380Z,17.9
2022-08-08T06:05:33.365Z,18.2
2022-08-08T06:10:10.722Z,18.2
2022-08-08T06:15:12.602Z,18.5
2022-08-08T06:20:11.589Z,18.6
2022-08-08T06:25:10.274Z,19.1
2022-08-08T06:30:11.886Z,18.8
2022-08-08T06:35:12.630Z,19.5
2022-08-08T06:40:10.513Z,19.9
2022-08-08T06:45:10.097Z,20.1
2022-08-08T06:50:12.744Z,20.2
2022-08-08T06:55:10.103Z,20.2
2022-08-08T07:00:12.711Z,20.2
2022-08-08T07:05:11.781Z,20.5
2022-08-08T07:10:10.116Z,20.7
2022-08-08T07:15:15.590Z,20.8
2022-08-08T07:20:11.296Z,21.1
2022-08-08T07:25:10.097Z,21.1
2022-08-08T07:30:13.841Z,20.9
2022-08-08T07:35:10.101Z,21.1
2022-08-08T07:40:10.163Z,21.2
2022-08-08T07:45:10.101Z,21.2
2022-08-08T07:50:10.121Z,21.5
2022-08-08T07:55:10.101Z,21.5
2022-08-08T08:00:13.257Z,21.5
2022-08-08T08:05:14.430Z,22.2
2022-08-08T08:10:12.289Z,22.2
2022-08-08T08:15:10.104Z,22.4
2022-08-08T08:20:10.238Z,22.7
2022-08-08T08:25:10.103Z,22.7
2022-08-08T08:30:10.113Z,22.8
2022-08-08T08:35:10.105Z,23.3
2022-08-08T08:40:10.143Z,23.4
2022-08-08T08:45:22.168Z,23.7
2022-08-08T08:50:17.135Z,24.3
2022-08-08T08:55:10.105Z,23.8
2022-08-08T09:00:15.517Z,24.5
2022-08-08T09:05:13.879Z,24.4
2022-08-08T09:10:13.826Z,24.4
2022-08-08T09:15:10.101Z,24.6
2022-08-08T09:21:55.522Z,24.4
2022-08-08T09:25:10.392Z,25.1
2022-08-08T09:30:10.110Z,25.1
2022-08-08T09:35:10.109Z,25.3
2022-08-08T09:40:10.919Z,25.7
2022-08-08T09:45:15.887Z,25
2022-08-08T09:50:13.836Z,25
2022-08-08T09:55:10.110Z,24.8
2022-08-08T10:00:50.309Z,25.3
2022-08-08T10:05:14.404Z,25.3
2022-08-08T10:10:10.117Z,25.8
2022-08-08T10:15:17.793Z,25.7
2022-08-08T10:20:10.114Z,25.9
2022-08-08T10:25:15.578Z,25.8
2022-08-08T10:30:15.813Z,25.8
2022-08-08T10:35:10.473Z,25.8
2022-08-08T10:40:10.129Z,26.5
2022-08-08T10:45:10.111Z,26.4
2022-08-08T10:50:10.115Z,25.9
2022-08-08T10:55:10.104Z,26.2
2022-08-08T11:00:10.115Z,25.7
2022-08-08T11:05:14.607Z,25.9
2022-08-08T11:10:10.129Z,26.3
2022-08-08T11:15:10.113Z,26.1
2022-08-08T11:20:10.819Z,26.4
2022-08-08T11:25:13.994Z,26.2
2022-08-08T11:30:18.841Z,26.4
2022-08-08T11:35:24.623Z,26.4
2022-08-08T11:40:10.170Z,26.8
2022-08-08T11:45:10.108Z,26.4
2022-08-08T11:50:10.245Z,26.2
2022-08-08T11:55:10.105Z,26.4
2022-08-08T12:00:10.510Z,26.9
2022-08-08T12:05:12.153Z,26.8
2022-08-08T12:10:10.105Z,27
2022-08-08T12:15:10.103Z,26.5
2022-08-08T12:20:10.116Z,26.3
2022-08-08T12:25:10.102Z,26.6
2022-08-08T12:30:15.779Z,26.9
2022-08-08T12:35:13.328Z,27
2022-08-08T12:40:10.178Z,26.8
2022-08-08T12:45:20.179Z,27.5
2022-08-08T12:50:10.110Z,27.2
2022-08-08T12:55:13.545Z,26.9
2022-08-08T13:00:12.327Z,27.1
2022-08-08T13:05:15.528Z,27.1
2022-08-08T13:10:10.572Z,27.7
2022-08-08T13:15:10.110Z,27.7
2022-08-08T13:20:10.116Z,27.6
2022-08-08T13:25:10.102Z,27.6
2022-08-08T13:30:10.531Z,27.1
2022-08-08T13:35:11.619Z,27.4
2022-08-08T13:40:10.106Z,27.9
2022-08-08T13:45:10.125Z,28
2022-08-08T13:50:34.472Z,27.6
2022-08-08T13:55:10.108Z,27.6
2022-08-08T14:00:10.116Z,27.6
2022-08-08T14:05:20.696Z,27.3
2022-08-08T14:10:12.192Z,27.3
2022-08-08T14:15:10.289Z,28.1
2022-08-08T14:20:14.962Z,27.5
2022-08-08T14:25:15.151Z,27.4
2022-08-08T14:30:17.164Z,27.5
2022-08-08T14:35:10.109Z,27.7
2022-08-08T14:40:10.175Z,27.8
2022-08-08T14:45:10.361Z,28.6
2022-08-08T14:50:11.648Z,28.9
2022-08-08T14:55:10.107Z,28.8
2022-08-08T15:00:10.128Z,28.5
2022-08-08T15:05:11.832Z,28
2022-08-08T15:10:10.144Z,27.8
2022-08-08T15:15:10.135Z,28.1
2022-08-08T15:20:13.889Z,28.2
2022-08-08T15:25:17.467Z,28.8
2022-08-08T15:30:12.474Z,28.3
2022-08-08T15:35:10.109Z,28.7
2022-08-08T15:40:11.072Z,28.8
2022-08-08T15:45:10.118Z,28.8
2022-08-08T15:50:19.842Z,28.6
2022-08-08T15:55:10.109Z,28.3
2022-08-08T16:00:25.659Z,28.5
2022-08-08T16:05:13.719Z,28.8
2022-08-08T16:13:06.600Z,28.7
2022-08-08T16:15:10.112Z,28.7
2022-08-08T16:20:13.285Z,28.4
2022-08-08T16:25:10.103Z,28.7
2022-08-08T16:30:13.981Z,28.8
2022-08-08T16:35:10.104Z,28.2
2022-08-08T16:40:10.184Z,28.3
2022-08-08T16:45:11.266Z,28.2
2022-08-08T16:50:13.394Z,28
2022-08-08T16:55:23.411Z,28
2022-08-08T17:00:10.141Z,28
2022-08-08T17:05:12.817Z,28.3
2022-08-08T17:10:10.124Z,28.3
2022-08-08T17:15:17.301Z,28.2
2022-08-08T17:20:10.119Z,28.3
2022-08-08T17:25:11.614Z,28.3
2022-08-08T17:30:13.625Z,28.1
2022-08-08T17:35:14.663Z,28.3
2022-08-08T17:40:13.278Z,28.5
2022-08-08T17:45:14.137Z,28.5
2022-08-08T17:50:10.108Z,28.6
2022-08-08T17:56:04.321Z,28.7
2022-08-08T18:00:13.492Z,28.5
2022-08-08T18:05:10.099Z,27.5
2022-08-08T18:10:10.104Z,26.1
2022-08-08T18:15:10.104Z,25.5
2022-08-08T18:20:37.593Z,25
2022-08-08T18:25:10.107Z,24.5
2022-08-08T18:30:10.102Z,23.9
2022-08-08T18:35:15.577Z,23.4
2022-08-08T18:40:12.975Z,23.4
2022-08-08T18:45:45.378Z,22.7
2022-08-08T18:50:10.173Z,22.7
2022-08-08T18:55:11.533Z,22.1
2022-08-08T19:00:14.089Z,22.1
2022-08-08T19:05:10.099Z,22
2022-08-08T19:10:14.059Z,22
2022-08-08T19:15:10.105Z,23.2
2022-08-08T19:20:10.103Z,23.6
2022-08-08T19:25:18.976Z,23.9
2022-08-08T19:30:18.167Z,23.9
2022-08-08T19:35:10.108Z,23.8
2022-08-08T19:40:13.750Z,23.7
2022-08-08T19:45:10.235Z,23.6
2022-08-08T19:50:12.531Z,23.4
2022-08-08T19:55:11.171Z,23.2
2022-08-08T20:00:11.132Z,23.2
2022-08-08T20:05:10.107Z,22.9
2022-08-08T20:10:10.112Z,22.7
2022-08-08T20:15:15.240Z,22.5
2022-08-08T20:20:10.112Z,22.3
2022-08-08T20:25:10.106Z,22.1
2022-08-08T20:30:10.115Z,21.9
2022-08-08T20:35:10.104Z,21.7
2022-08-08T20:40:10.171Z,21.6
2022-08-08T20:45:10.104Z,21.5
2022-08-08T20:50:10.701Z,21.4
2022-08-08T20:55:16.553Z,21.3
2022-08-08T21:00:10.129Z,21.2
2022-08-08T21:05:10.105Z,21.2
2022-08-08T21:10:12.566Z,21.2
2022-08-08T21:15:10.118Z,21.3
2022-08-08T21:20:10.113Z,21.2
2022-08-08T21:25:10.478Z,21.1
2022-08-08T21:30:16.306Z,21.1
2022-08-08T21:36:13.432Z,21
2022-08-08T21:40:10.155Z,21
2022-08-08T21:45:21.134Z,20.9
2022-08-08T21:50:10.126Z,20.9
2022-08-08T21:55:24.128Z,20.8
2022-08-08T22:00:10.135Z,20.7
2022-08-08T22:05:10.113Z,20.7
2022-08-08T22:10:10.137Z,20.7
2022-08-08T22:15:10.101Z,20.6
2022-08-08T22:20:11.773Z,20.5
2022-08-08T22:25:12.262Z,20.4
2022-08-08T22:30:13.861Z,20.3
2022-08-08T22:35:10.103Z,20.3
2022-08-08T22:40:11.971Z,20.3
2022-08-08T22:45:12.667Z,20.3
2022-08-08T22:50:26.647Z,20.2
2022-08-08T22:55:10.112Z,20.1
2022-08-08T23:00:10.111Z,20.1
2022-08-08T23:05:13.607Z,20.1
2022-08-08T23:10:10.106Z,20
2022-08-08T23:15:11.005Z,19.9
2022-08-08T23:20:10.106Z,19.8
2022-08-08T23:25:10.101Z,19.7
2022-08-08T23:30:10.111Z,19.6
2022-08-08T23:35:12.409Z,19.6
2022-08-08T23:40:10.305Z,19.4
2022-08-08T23:45:10.249Z,19.4
2022-08-08T23:50:12.360Z,19.3
2022-08-08T23:55:14.800Z,19.2
